Time;durP1;ratioP1;P1;durP2;ratioP2;P2;SDS_P1;SDS_P2;PMS_P1;PMS_P2;Temp;Humidity;BMP_temperature;BMP_pressure;BME280_temperature;BME280_humidity;BME280_pressure;Samples;Min_cycle;Max_cycle;Signal;HPM_P1;HPM_P2
2021/03/26 00:01:10;;;;;;;38.53;22.93;;;8.80;99.90;;;;;;5074212;28;20259;-62
2021/03/26 00:03:41;;;;;;;42.67;24.90;;;8.80;99.90;;;;;;5074325;28;20189;-62
2021/03/26 00:06:12;;;;;;;36.73;23.13;;;8.70;99.90;;;;;;5074098;28;20268;-61
2021/03/26 00:08:39;;;;;;;38.07;24.90;;;8.70;99.90;;;;;;5092235;28;20302;-62
2021/03/26 00:11:07;;;;;;;40.03;24.13;;;8.60;99.90;;;;;;5094437;28;20847;-62
2021/03/26 00:13:34;;;;;;;42.20;24.90;;;8.60;99.90;;;;;;5094257;28;20675;-63
2021/03/26 00:16:01;;;;;;;46.73;26.53;;;8.50;99.90;;;;;;5094527;28;20231;-62
2021/03/26 00:18:28;;;;;;;42.90;26.93;;;8.60;99.90;;;;;;5094394;28;20209;-62
2021/03/26 00:20:57;;;;;;;38.80;25.73;;;8.50;99.90;;;;;;5094269;28;20238;-62
2021/03/26 00:23:24;;;;;;;43.23;25.97;;;8.50;99.90;;;;;;5094477;28;20204;-62
2021/03/26 00:25:51;;;;;;;40.70;26.00;;;8.60;99.90;;;;;;5094339;28;20236;-62
2021/03/26 00:28:18;;;;;;;49.27;27.20;;;8.60;99.90;;;;;;5094156;28;20200;-62
2021/03/26 00:30:45;;;;;;;45.63;26.67;;;8.50;99.90;;;;;;5094437;28;20231;-62
2021/03/26 00:33:11;;;;;;;44.60;30.00;;;8.40;99.90;;;;;;5093835;28;20200;-63
2021/03/26 00:35:39;;;;;;;46.00;28.27;;;8.30;99.90;;;;;;5093985;28;20204;-62
2021/03/26 00:38:07;;;;;;;49.63;30.13;;;8.20;99.90;;;;;;5094169;28;20257;-61
2021/03/26 00:40:34;;;;;;;50.83;32.13;;;8.10;99.90;;;;;;5094170;28;20195;-62
2021/03/26 00:43:01;;;;;;;54.50;32.77;;;8.10;99.90;;;;;;5093902;28;20421;-62
2021/03/26 00:45:31;;;;;;;53.50;31.10;;;8.00;99.90;;;;;;5093916;28;20295;-62
2021/03/26 00:47:59;;;;;;;45.30;30.07;;;8.10;99.90;;;;;;5093586;28;20204;-62
2021/03/26 00:50:30;;;;;;;53.47;31.03;;;8.00;99.90;;;;;;5093156;28;20661;-62
2021/03/26 00:52:59;;;;;;;50.27;31.13;;;8.00;99.90;;;;;;5093597;28;20188;-62
2021/03/26 00:55:26;;;;;;;52.13;32.07;;;7.90;99.90;;;;;;5093338;28;20400;-63
2021/03/26 00:57:53;;;;;;;59.70;34.93;;;7.90;99.90;;;;;;5093364;28;20292;-63
2021/03/26 01:00:23;;;;;;;63.20;37.90;;;7.80;99.90;;;;;;5093651;28;20303;-62
2021/03/26 01:02:50;;;;;;;59.60;37.17;;;7.80;99.90;;;;;;5093480;28;20289;-62
2021/03/26 01:05:20;;;;;;;59.40;36.43;;;7.80;99.90;;;;;;5093317;28;20196;-62
2021/03/26 01:07:48;;;;;;;55.87;35.63;;;7.80;99.90;;;;;;5093317;28;20286;-62
2021/03/26 01:10:17;;;;;;;56.80;35.93;;;7.80;99.90;;;;;;5093173;28;20255;-62
2021/03/26 01:12:44;;;;;;;52.60;34.30;;;7.80;99.90;;;;;;5093602;28;20204;-62
2021/03/26 01:15:14;;;;;;;54.17;35.23;;;7.70;99.90;;;;;;5093493;28;20845;-61
2021/03/26 01:17:42;;;;;;;55.87;34.10;;;7.70;99.90;;;;;;5093258;28;20204;-62
2021/03/26 01:20:13;;;;;;;55.67;31.80;;;7.70;99.90;;;;;;5093060;28;20196;-63
2021/03/26 01:22:41;;;;;;;53.27;31.67;;;7.70;99.90;;;;;;5093493;28;20271;-62
2021/03/26 01:25:11;;;;;;;52.73;31.43;;;7.70;99.90;;;;;;5092889;28;20318;-62
2021/03/26 01:27:37;;;;;;;50.63;30.23;;;7.90;99.90;;;;;;5093242;28;20639;-62
2021/03/26 01:30:09;;;;;;;50.77;30.07;;;8.00;99.90;;;;;;5093279;28;20251;-62
2021/03/26 01:32:36;;;;;;;49.63;29.43;;;7.90;99.90;;;;;;5093399;28;20271;-62
2021/03/26 01:35:07;;;;;;;50.87;28.83;;;7.90;99.90;;;;;;5092690;28;20875;-63
2021/03/26 01:37:34;;;;;;;48.87;29.00;;;7.90;99.90;;;;;;5093036;28;20232;-62
2021/03/26 01:40:01;;;;;;;47.00;28.27;;;7.80;99.90;;;;;;5093022;28;20228;-62
2021/03/26 01:42:30;;;;;;;50.87;27.60;;;7.90;99.90;;;;;;5092881;28;20231;-62
2021/03/26 01:44:58;;;;;;;51.40;28.73;;;7.90;99.90;;;;;;5093064;28;20228;-62
2021/03/26 01:47:26;;;;;;;46.93;27.03;;;8.00;99.90;;;;;;5092920;28;20653;-63
2021/03/26 01:49:54;;;;;;;45.70;27.23;;;7.90;99.90;;;;;;5092359;28;20285;-62
2021/03/26 01:52:21;;;;;;;47.77;27.93;;;8.00;99.90;;;;;;5092805;28;20647;-62
2021/03/26 01:54:47;;;;;;;48.73;29.83;;;7.90;99.90;;;;;;5092637;28;20211;-62
2021/03/26 01:57:15;;;;;;;53.63;32.47;;;7.80;99.90;;;;;;5092473;28;20667;-61
2021/03/26 01:59:41;;;;;;;50.53;31.47;;;7.80;99.90;;;;;;5092813;28;20359;-61
2021/03/26 02:02:13;;;;;;;55.63;33.30;;;7.70;99.90;;;;;;5092666;28;20206;-61
2021/03/26 02:04:43;;;;;;;53.83;31.97;;;7.70;99.90;;;;;;5092622;28;20364;-63
2021/03/26 02:07:11;;;;;;;53.30;32.63;;;7.70;99.90;;;;;;5092935;28;20188;-62
2021/03/26 02:09:40;;;;;;;54.07;31.63;;;7.70;99.90;;;;;;5092830;28;20222;-63
2021/03/26 02:12:10;;;;;;;52.80;31.67;;;7.60;99.90;;;;;;5092664;28;20742;-61
2021/03/26 02:14:42;;;;;;;50.60;30.73;;;7.50;99.90;;;;;;5092796;28;20216;-62
2021/03/26 02:17:14;;;;;;;54.63;29.63;;;7.40;99.90;;;;;;5092664;28;20279;-61
2021/03/26 02:19:47;;;;;;;46.13;27.67;;;7.50;99.90;;;;;;5092149;28;20628;-62
2021/03/26 02:22:15;;;;;;;48.30;29.30;;;7.40;99.90;;;;;;5092661;28;20267;-62
2021/03/26 02:24:44;;;;;;;52.10;28.27;;;7.40;99.90;;;;;;5092579;28;20323;-61
2021/03/26 02:27:15;;;;;;;48.07;28.60;;;7.40;99.90;;;;;;5092437;28;20224;-62
2021/03/26 02:29:43;;;;;;;49.07;28.83;;;7.40;99.90;;;;;;5092295;28;20680;-62
2021/03/26 02:32:21;;;;;;;44.80;28.10;;;7.30;99.90;;;;;;5095487;28;20303;-63
2021/03/26 02:35:17;;;;;;;50.07;27.73;;;7.30;99.90;;;;;;5096112;28;20597;-61
2021/03/26 02:37:47;;;;;;;47.53;27.63;;;7.20;99.90;;;;;;5096584;28;20192;-61
2021/03/26 02:40:21;;;;;;;48.07;28.20;;;7.20;99.90;;;;;;5096512;28;20230;-62
2021/03/26 02:42:54;;;;;;;51.00;27.50;;;7.20;99.90;;;;;;5096432;28;20282;-63
2021/03/26 02:45:27;;;;;;;49.43;27.70;;;7.20;99.90;;;;;;5096043;28;20544;-61
2021/03/26 02:47:56;;;;;;;51.30;28.13;;;7.20;99.90;;;;;;5095922;28;20274;-63
2021/03/26 02:50:33;;;;;;;51.80;27.70;;;7.20;99.90;;;;;;5095972;28;20216;-62
2021/03/26 02:53:07;;;;;;;48.43;28.33;;;7.20;99.90;;;;;;5095868;28;20191;-61
2021/03/26 02:55:38;;;;;;;51.13;28.27;;;7.20;99.90;;;;;;5096123;28;20191;-61
2021/03/26 02:58:18;;;;;;;48.63;27.70;;;7.20;99.90;;;;;;5096017;28;20253;-62
2021/03/26 03:00:49;;;;;;;46.80;27.17;;;7.20;99.90;;;;;;5095883;28;20223;-63
2021/03/26 03:03:21;;;;;;;46.07;27.53;;;7.20;99.90;;;;;;5095986;28;20246;-62
2021/03/26 03:05:56;;;;;;;47.23;28.20;;;7.20;99.90;;;;;;5095411;28;20600;-62
2021/03/26 03:08:27;;;;;;;47.63;27.77;;;7.10;99.90;;;;;;5095750;28;20719;-62
2021/03/26 03:10:58;;;;;;;47.20;27.67;;;7.20;99.90;;;;;;5095760;28;20295;-62
2021/03/26 03:13:30;;;;;;;52.33;28.27;;;7.10;99.90;;;;;;5095642;28;20279;-61
2021/03/26 03:16:03;;;;;;;48.90;27.33;;;7.10;99.90;;;;;;5095701;28;20282;-61
2021/03/26 03:18:35;;;;;;;51.33;28.30;;;7.00;99.90;;;;;;5075160;28;20641;-62
2021/03/26 03:21:08;;;;;;;54.37;31.00;;;7.00;99.90;;;;;;5075283;28;20185;-61
2021/03/26 03:23:40;;;;;;;52.20;32.40;;;7.00;99.90;;;;;;5075340;28;20219;-62
2021/03/26 03:26:16;;;;;;;60.57;34.83;;;7.00;99.90;;;;;;5075194;28;20320;-62
2021/03/26 03:28:51;;;;;;;49.90;29.63;;;7.00;99.90;;;;;;5075122;28;20189;-62
2021/03/26 03:31:38;;;;;;;61.87;32.50;;;6.90;99.90;;;;;;5075600;28;20202;-62
2021/03/26 03:34:16;;;;;;;55.50;31.20;;;6.90;99.90;;;;;;5074877;28;20189;-62
2021/03/26 03:36:48;;;;;;;52.17;30.20;;;6.90;99.90;;;;;;5075304;28;20192;-62
2021/03/26 03:39:22;;;;;;;57.63;33.83;;;6.90;99.90;;;;;;5075178;28;20268;-62
2021/03/26 03:41:56;;;;;;;57.90;33.70;;;6.80;99.90;;;;;;5074908;28;20696;-62
2021/03/26 03:44:32;;;;;;;55.10;31.80;;;6.80;99.90;;;;;;5074788;28;20279;-62
2021/03/26 03:47:07;;;;;;;49.57;29.47;;;6.70;99.90;;;;;;5074599;28;20724;-62
2021/03/26 03:49:40;;;;;;;52.90;28.50;;;6.70;99.90;;;;;;5074504;28;20243;-61
2021/03/26 03:52:17;;;;;;;51.27;28.63;;;6.70;99.90;;;;;;5076802;28;20279;-61
2021/03/26 03:54:52;;;;;;;52.97;29.07;;;6.70;99.90;;;;;;5079387;28;20188;-63
2021/03/26 03:57:26;;;;;;;56.77;29.80;;;6.70;99.90;;;;;;5077462;28;20187;-61
2021/03/26 03:59:58;;;;;;;60.70;31.53;;;6.70;99.90;;;;;;5074857;28;20540;-61
2021/03/26 04:02:32;;;;;;;54.40;29.57;;;6.70;99.90;;;;;;5074301;28;20189;-62
2021/03/26 04:05:05;;;;;;;49.13;27.80;;;6.70;99.90;;;;;;5074041;28;20667;-62
2021/03/26 04:07:37;;;;;;;51.17;28.67;;;6.80;99.90;;;;;;5074061;28;20192;-62
2021/03/26 04:10:10;;;;;;;58.10;30.37;;;6.90;99.90;;;;;;5074103;28;20614;-61
2021/03/26 04:12:40;;;;;;;58.63;34.13;;;6.80;99.90;;;;;;5074341;28;20238;-61
2021/03/26 04:15:13;;;;;;;70.10;41.93;;;6.80;99.90;;;;;;5074538;28;20207;-62
2021/03/26 04:17:46;;;;;;;57.67;35.90;;;6.80;99.90;;;;;;5087839;28;20544;-63
2021/03/26 04:20:20;;;;;;;51.93;28.23;;;6.70;99.90;;;;;;5094600;28;20185;-61
2021/03/26 04:22:51;;;;;;;55.70;29.53;;;6.60;99.90;;;;;;5094602;28;20237;-63
2021/03/26 04:25:22;;;;;;;53.90;29.93;;;6.60;99.90;;;;;;5094375;28;20318;-61
2021/03/26 04:27:59;;;;;;;54.10;31.33;;;6.60;99.90;;;;;;5094432;28;20193;-62
2021/03/26 04:30:29;;;;;;;57.10;34.37;;;6.60;99.90;;;;;;5094245;28;20239;-61
2021/03/26 04:32:58;;;;;;;57.23;37.27;;;6.60;99.90;;;;;;5094134;28;20620;-62
2021/03/26 04:35:26;;;;;;;63.93;37.97;;;6.50;99.90;;;;;;5094347;28;20208;-62
2021/03/26 04:38:07;;;;;;;61.03;36.47;;;6.50;99.90;;;;;;5094230;28;20241;-62
2021/03/26 04:40:37;;;;;;;60.23;34.03;;;6.40;99.90;;;;;;5094274;28;20186;-63
2021/03/26 04:43:20;;;;;;;60.87;34.63;;;6.40;99.90;;;;;;5094158;28;20204;-62
2021/03/26 04:45:52;;;;;;;57.83;32.17;;;6.40;99.90;;;;;;5093846;28;20213;-62
2021/03/26 04:48:24;;;;;;;67.80;38.27;;;6.40;99.90;;;;;;5093739;28;20685;-61
2021/03/26 04:51:01;;;;;;;54.43;32.30;;;6.20;99.90;;;;;;5094108;28;20208;-62
2021/03/26 04:53:44;;;;;;;53.40;33.87;;;6.20;99.90;;;;;;5093508;28;20265;-62
2021/03/26 04:56:21;;;;;;;55.73;32.53;;;6.20;99.90;;;;;;5094021;28;20190;-63
2021/03/26 04:58:54;;;;;;;55.50;29.03;;;6.10;99.90;;;;;;5093838;28;20274;-61
2021/03/26 05:01:23;;;;;;;46.60;28.00;;;6.20;99.90;;;;;;5093938;28;20187;-63
2021/03/26 05:03:56;;;;;;;52.73;29.53;;;6.20;99.90;;;;;;5093573;28;20200;-63
2021/03/26 05:06:28;;;;;;;52.10;28.47;;;6.40;99.90;;;;;;5093393;28;20267;-61
2021/03/26 05:09:00;;;;;;;57.90;31.07;;;6.50;99.90;;;;;;5093688;28;20274;-63
2021/03/26 05:11:33;;;;;;;50.30;27.63;;;6.50;99.90;;;;;;5089927;28;20625;-63
2021/03/26 05:14:06;;;;;;;52.83;27.97;;;6.60;99.90;;;;;;5093299;28;20187;-62
2021/03/26 05:16:40;;;;;;;44.90;27.23;;;6.80;99.90;;;;;;5093428;28;20223;-62
2021/03/26 05:19:14;;;;;;;46.90;27.07;;;7.00;99.90;;;;;;5093378;28;20193;-61
2021/03/26 05:21:45;;;;;;;49.87;25.57;;;6.90;99.90;;;;;;5093457;28;20600;-62
2021/03/26 05:24:19;;;;;;;44.97;24.53;;;6.80;99.90;;;;;;5093447;28;20211;-62
2021/03/26 05:26:46;;;;;;;43.37;24.43;;;7.00;99.90;;;;;;5092957;28;20271;-62
2021/03/26 05:29:14;;;;;;;44.27;25.20;;;7.00;99.90;;;;;;5092852;28;20737;-62
2021/03/26 05:31:49;;;;;;;43.37;24.20;;;7.10;99.90;;;;;;5086300;28;20208;-63
2021/03/26 05:34:22;;;;;;;39.67;23.90;;;7.10;99.90;;;;;;5072689;28;20198;-61
2021/03/26 05:37:03;;;;;;;41.73;24.27;;;7.10;99.90;;;;;;5072689;28;20225;-62
2021/03/26 05:39:35;;;;;;;40.63;23.07;;;7.10;99.90;;;;;;5072876;28;20181;-62
2021/03/26 05:42:23;;;;;;;45.97;24.53;;;7.10;99.90;;;;;;5072314;28;20268;-62
2021/03/26 05:45:02;;;;;;;43.83;24.77;;;7.20;99.90;;;;;;5072537;28;20192;-62
2021/03/26 05:47:53;;;;;;;43.20;25.03;;;7.10;99.90;;;;;;5072479;28;20282;-62
2021/03/26 05:50:38;;;;;;;45.07;24.60;;;7.10;99.90;;;;;;5072811;28;20262;-61
2021/03/26 05:53:16;;;;;;;42.57;24.87;;;7.30;99.90;;;;;;5072650;28;20184;-61
2021/03/26 05:55:51;;;;;;;43.00;24.30;;;7.40;99.90;;;;;;5072292;28;20294;-61
2021/03/26 05:58:31;;;;;;;39.67;23.87;;;7.40;99.90;;;;;;5072027;28;20208;-61
2021/03/26 06:01:11;;;;;;;39.17;21.97;;;7.60;99.90;;;;;;5072351;28;20267;-61
2021/03/26 06:04:14;;;;;;;42.43;24.53;;;7.70;99.90;;;;;;5072074;28;20633;-61
2021/03/26 06:06:58;;;;;;;39.73;23.30;;;7.80;99.90;;;;;;5074688;28;20560;-61
2021/03/26 06:09:59;;;;;;;41.27;21.83;;;8.00;99.90;;;;;;5076432;28;20731;-62
2021/03/26 06:12:55;;;;;;;39.37;21.77;;;8.10;99.90;;;;;;5053874;28;20299;-61
2021/03/26 06:16:00;;;;;;;38.37;22.60;;;8.20;99.90;;;;;;5076488;28;20191;-62
2021/03/26 06:18:54;;;;;;;40.50;22.97;;;8.30;99.90;;;;;;5095877;28;20634;-62
2021/03/26 06:21:28;;;;;;;42.77;21.67;;;8.30;99.90;;;;;;5096897;28;20333;-61
2021/03/26 06:24:15;;;;;;;35.23;20.53;;;8.20;99.90;;;;;;5096382;28;20188;-61
2021/03/26 06:27:00;;;;;;;40.53;25.65;;;8.20;99.90;;;;;;5094752;28;20530;-61
2021/03/26 06:29:40;;;;;;;35.23;23.27;;;8.30;99.90;;;;;;5096287;28;20190;-62
2021/03/26 06:33:03;;;;;;;33.27;21.50;;;8.50;99.90;;;;;;5096711;28;20184;-62
2021/03/26 06:36:01;;;;;;;36.73;19.77;;;8.60;99.90;;;;;;5096090;28;20648;-62
2021/03/26 06:39:02;;;;;;;36.20;20.90;;;8.70;99.90;;;;;;5096381;28;20185;-63
2021/03/26 06:41:42;;;;;;;32.00;20.33;;;8.60;99.90;;;;;;5093307;28;20541;-62
2021/03/26 06:44:43;;;;;;;34.03;21.40;;;8.60;99.90;;;;;;5084647;28;20223;-62
2021/03/26 06:47:17;;;;;;;34.03;21.17;;;8.70;99.90;;;;;;5075816;28;20245;-62
2021/03/26 06:49:56;;;;;;;32.47;20.67;;;8.70;99.90;;;;;;5080115;28;20735;-62
2021/03/26 06:52:47;;;;;;;32.17;19.47;;;8.70;99.90;;;;;;5084839;28;20601;-62
2021/03/26 06:55:55;;;;;;;33.30;20.53;;;8.60;99.90;;;;;;5082999;28;20287;-63
2021/03/26 06:58:57;;;;;;;35.23;19.30;;;8.80;99.90;;;;;;5063831;28;20738;-62
2021/03/26 07:01:45;;;;;;;30.23;19.17;;;8.90;99.90;;;;;;5066317;28;20294;-62
2021/03/26 07:04:53;;;;;;;34.77;20.83;;;8.90;99.90;;;;;;5090392;28;20196;-62
2021/03/26 07:07:53;;;;;;;31.97;20.97;;;9.00;99.90;;;;;;5087623;28;20200;-62
2021/03/26 07:10:30;;;;;;;30.87;19.83;;;9.10;99.90;;;;;;5095339;28;20291;-62
2021/03/26 07:13:22;;;;;;;33.97;20.13;;;9.20;99.90;;;;;;5091572;28;20291;-62
2021/03/26 07:15:58;;;;;;;33.10;19.87;;;9.30;99.90;;;;;;5087367;28;20238;-62
2021/03/26 07:18:46;;;;;;;33.20;20.00;;;9.40;99.90;;;;;;5094599;28;20184;-61
2021/03/26 07:21:41;;;;;;;35.20;20.37;;;9.50;99.90;;;;;;5095666;28;20188;-62
2021/03/26 07:24:29;;;;;;;30.33;20.03;;;9.50;99.90;;;;;;5088625;28;20687;-61
2021/03/26 07:27:09;;;;;;;31.33;19.63;;;9.70;99.90;;;;;;5084651;28;20227;-62
2021/03/26 07:30:06;;;;;;;31.80;20.17;;;9.70;99.90;;;;;;5095134;28;20278;-62
2021/03/26 07:32:45;;;;;;;31.97;20.50;;;9.80;99.90;;;;;;5094160;28;20555;-61
2021/03/26 07:35:38;;;;;;;29.50;20.17;;;9.80;99.90;;;;;;5081508;28;20555;-61
2021/03/26 07:38:33;;;;;;;32.00;20.87;;;9.90;99.90;;;;;;5081477;28;20255;-63
2021/03/26 07:41:42;;;;;;;33.47;20.37;;;10.00;99.90;;;;;;5074555;28;20256;-62
2021/03/26 07:44:34;;;;;;;29.80;20.20;;;10.10;99.90;;;;;;5075166;28;20306;-63
2021/03/26 07:47:19;;;;;;;28.03;20.20;;;10.20;99.90;;;;;;5082358;28;20193;-62
2021/03/26 07:50:21;;;;;;;30.60;21.10;;;10.30;99.90;;;;;;5079710;28;20207;-61
2021/03/26 07:52:57;;;;;;;30.60;19.80;;;10.40;99.90;;;;;;5094680;28;20187;-61
2021/03/26 07:55:36;;;;;;;30.03;20.83;;;10.50;99.90;;;;;;5096309;28;20558;-62
2021/03/26 07:58:37;;;;;;;29.40;20.57;;;10.60;99.90;;;;;;5101026;28;20189;-63
2021/03/26 08:01:20;;;;;;;29.93;20.67;;;10.70;99.90;;;;;;5099162;28;20273;-62
2021/03/26 08:04:04;;;;;;;27.83;19.43;;;10.80;99.90;;;;;;5094680;28;20224;-62
2021/03/26 08:07:19;;;;;;;30.23;20.67;;;10.80;99.90;;;;;;5094652;28;20184;-62
2021/03/26 08:10:08;;;;;;;33.80;20.77;;;10.90;99.90;;;;;;5094282;28;20185;-62
2021/03/26 08:12:48;;;;;;;31.30;20.70;;;11.10;99.90;;;;;;5094103;28;20231;-62
2021/03/26 08:15:35;;;;;;;31.47;20.93;;;11.20;99.90;;;;;;5094137;28;20184;-62
2021/03/26 08:18:17;;;;;;;29.73;20.60;;;11.30;99.90;;;;;;5093983;28;20196;-62
2021/03/26 08:20:59;;;;;;;29.67;20.37;;;11.30;99.90;;;;;;5094558;28;20293;-61
2021/03/26 08:23:38;;;;;;;28.07;21.17;;;11.30;99.90;;;;;;5084437;28;20283;-61
2021/03/26 08:26:16;;;;;;;34.27;22.43;;;11.40;99.90;;;;;;5091677;28;20231;-61
2021/03/26 08:29:00;;;;;;;32.17;22.07;;;11.50;99.90;;;;;;5091072;28;20181;-62
2021/03/26 08:31:41;;;;;;;32.67;21.53;;;11.60;99.90;;;;;;5091813;28;20204;-61
2021/03/26 08:34:28;;;;;;;32.53;22.60;;;11.70;99.90;;;;;;5092730;28;20195;-62
2021/03/26 08:37:00;;;;;;;33.27;22.93;;;11.70;99.90;;;;;;5090509;28;20223;-61
2021/03/26 08:39:38;;;;;;;35.37;24.97;;;11.90;99.90;;;;;;5092650;28;20342;-61
2021/03/26 08:42:16;;;;;;;38.30;24.83;;;12.00;99.90;;;;;;5091314;28;20648;-61
2021/03/26 08:44:51;;;;;;;35.50;24.50;;;12.10;99.90;;;;;;5091408;28;20268;-62
2021/03/26 08:47:26;;;;;;;36.57;24.73;;;12.20;99.90;;;;;;5090544;28;20286;-61
2021/03/26 08:49:59;;;;;;;34.87;24.27;;;12.30;99.90;;;;;;5089935;28;20215;-64
2021/03/26 08:52:46;;;;;;;35.00;24.10;;;12.30;99.90;;;;;;5092645;28;20195;-61
2021/03/26 08:55:39;;;;;;;37.60;25.13;;;12.40;99.90;;;;;;5089605;28;20184;-61
2021/03/26 08:58:20;;;;;;;40.17;25.90;;;12.50;99.90;;;;;;5062173;28;20203;-62
2021/03/26 09:01:26;;;;;;;38.90;25.97;;;12.70;99.90;;;;;;5081969;28;20243;-61
2021/03/26 09:04:10;;;;;;;39.50;26.23;;;12.70;99.90;;;;;;5084017;28;20203;-64
2021/03/26 09:06:49;;;;;;;39.77;26.70;;;12.70;99.90;;;;;;5074876;28;20192;-63
2021/03/26 09:09:42;;;;;;;34.73;25.63;;;12.80;99.90;;;;;;5081508;28;20672;-63
2021/03/26 09:12:51;;;;;;;38.97;26.53;;;12.90;99.90;;;;;;5080169;28;20196;-64
2021/03/26 09:15:34;;;;;;;41.23;26.87;;;12.90;99.90;;;;;;5070642;28;20231;-62
2021/03/26 09:18:09;;;;;;;41.10;27.70;;;12.90;99.90;;;;;;5087652;28;20283;-60
2021/03/26 09:20:42;;;;;;;40.90;27.93;;;12.90;99.90;;;;;;5090268;28;20199;-61
2021/03/26 09:23:40;;;;;;;42.83;27.97;;;13.00;99.90;;;;;;5089729;28;20642;-63
2021/03/26 09:26:29;;;;;;;40.73;27.23;;;13.00;99.90;;;;;;5089909;28;20232;-62
2021/03/26 09:29:01;;;;;;;39.00;27.70;;;13.00;99.90;;;;;;5090175;28;20243;-62
2021/03/26 09:31:36;;;;;;;43.53;29.20;;;13.10;99.90;;;;;;5089946;28;20287;-65
2021/03/26 09:34:16;;;;;;;41.47;28.07;;;13.20;99.90;;;;;;5089777;28;20192;-61
2021/03/26 09:36:47;;;;;;;39.80;27.77;;;13.30;99.90;;;;;;5090181;28;20295;-63
2021/03/26 09:39:17;;;;;;;44.30;30.07;;;13.40;99.90;;;;;;5090041;28;20193;-62
2021/03/26 09:41:47;;;;;;;47.57;30.03;;;13.50;99.90;;;;;;5089932;28;20180;-66
2021/03/26 09:44:33;;;;;;;45.60;30.60;;;13.60;99.90;;;;;;5089589;28;20589;-64
2021/03/26 09:47:04;;;;;;;43.58;28.98;;;13.70;99.90;;;;;;5089865;28;20554;-61
2021/03/26 09:49:37;;;;;;;49.57;31.43;;;13.80;99.90;;;;;;5082139;28;20683;-63
2021/03/26 09:52:18;;;;;;;43.53;30.10;;;13.80;99.90;;;;;;5089494;28;20303;-62
2021/03/26 09:54:48;;;;;;;46.72;31.92;;;13.90;99.90;;;;;;5088318;28;20204;-62
2021/03/26 09:57:23;;;;;;;48.17;31.63;;;14.00;99.90;;;;;;5085840;28;20306;-63
2021/03/26 10:00:04;;;;;;;47.67;32.75;;;14.00;99.90;;;;;;5088928;28;20536;-62
2021/03/26 10:02:36;;;;;;;51.30;33.17;;;14.00;99.90;;;;;;5069220;28;20196;-65
2021/03/26 10:05:12;;;;;;;49.23;33.83;;;14.00;99.90;;;;;;5081773;28;20188;-64
2021/03/26 10:07:46;;;;;;;50.22;33.35;;;14.10;99.90;;;;;;5089545;28;20184;-64
2021/03/26 10:13:09;;;;;;;56.55;35.45;;;14.20;99.90;;;;;;5081317;28;20196;-61
2021/03/26 10:15:39;;;;;;;51.60;35.23;;;14.20;99.90;;;;;;5088582;28;20275;-62
2021/03/26 10:18:11;;;;;;;54.83;35.73;;;14.20;99.90;;;;;;5086770;28;20212;-60
2021/03/26 10:20:49;;;;;;;56.80;37.38;;;14.20;99.90;;;;;;5079121;28;20477;-62
2021/03/26 10:23:30;;;;;;;57.57;35.63;;;14.40;99.90;;;;;;5076557;28;20787;-63
2021/03/26 10:26:09;;;;;;;53.43;35.03;;;14.40;99.90;;;;;;5072575;28;20228;-61
2021/03/26 10:29:02;;;;;;;51.67;33.57;;;14.40;99.90;;;;;;5079873;28;20254;-70
2021/03/26 10:31:32;;;;;;;50.65;32.05;;;14.30;99.90;;;;;;5078765;28;20250;-69
2021/03/26 10:34:02;;;;;;;48.15;33.00;;;14.30;99.90;;;;;;5085180;28;20207;-61
2021/03/26 10:36:39;;;;;;;51.85;33.50;;;14.40;99.90;;;;;;5089144;28;20284;-62
2021/03/26 10:39:10;;;;;;;50.22;33.22;;;14.40;99.90;;;;;;5089471;28;20271;-61
2021/03/26 10:41:50;;;;;;;47.60;32.63;;;14.50;99.90;;;;;;5088996;28;20212;-61
2021/03/26 10:44:24;;;;;;;49.65;33.03;;;14.50;99.90;;;;;;5088898;28;20279;-61
2021/03/26 10:46:59;;;;;;;50.27;34.73;;;14.70;99.90;;;;;;5089216;28;20208;-61
2021/03/26 10:49:35;;;;;;;55.30;36.45;;;14.80;99.90;;;;;;5089332;28;20266;-60
2021/03/26 10:52:09;;;;;;;46.67;33.45;;;15.00;99.90;;;;;;5089892;28;20675;-61
2021/03/26 10:54:48;;;;;;;54.00;36.53;;;15.10;99.90;;;;;;5093369;28;20192;-62
2021/03/26 10:57:34;;;;;;;50.55;36.75;;;15.20;99.90;;;;;;5092742;28;20219;-62
2021/03/26 11:00:07;;;;;;;55.90;37.67;;;15.30;99.90;;;;;;5085132;28;20699;-60
2021/03/26 11:02:56;;;;;;;51.72;37.55;;;15.50;99.90;;;;;;5092830;28;20238;-61
2021/03/26 11:05:31;;;;;;;55.05;37.65;;;15.60;99.90;;;;;;5092303;28;20184;-62
2021/03/26 11:08:35;;;;;;;55.72;38.20;;;15.60;99.90;;;;;;5092310;28;20194;-61
2021/03/26 11:11:12;;;;;;;53.22;37.67;;;15.80;99.90;;;;;;5071880;28;20408;-62
2021/03/26 11:14:02;;;;;;;56.30;38.00;;;15.90;99.90;;;;;;5084019;28;20286;-63
2021/03/26 11:16:34;;;;;;;50.63;37.45;;;16.00;99.90;;;;;;5075567;28;20283;-64
2021/03/26 11:19:07;;;;;;;55.88;39.42;;;16.00;99.90;;;;;;5092918;28;20180;-64
2021/03/26 11:21:39;;;;;;;54.30;38.03;;;16.10;99.90;;;;;;5090961;28;20238;-62
2021/03/26 11:24:07;;;;;;;54.05;39.90;;;16.10;99.90;;;;;;5082567;28;20592;-64
2021/03/26 11:26:42;;;;;;;56.33;39.40;;;16.00;99.90;;;;;;5075890;28;20657;-62
2021/03/26 11:29:19;;;;;;;57.42;40.33;;;16.00;99.90;;;;;;5071735;28;20279;-63
2021/03/26 11:31:52;;;;;;;54.88;39.75;;;16.00;99.90;;;;;;5073530;28;20212;-62
2021/03/26 11:34:31;;;;;;;56.75;39.78;;;15.90;99.90;;;;;;5080866;28;20213;-63
2021/03/26 11:37:08;;;;;;;56.78;41.03;;;15.70;99.90;;;;;;5082719;28;20201;-63
2021/03/26 11:39:40;;;;;;;65.75;45.13;;;15.60;99.90;;;;;;5075440;28;20668;-61
2021/03/26 11:42:47;;;;;;;62.20;45.13;;;15.60;99.90;;;;;;5083592;28;20197;-61
2021/03/26 11:45:39;;;;;;;61.45;43.08;;;15.60;99.90;;;;;;5090932;28;20239;-62
2021/03/26 11:48:16;;;;;;;60.65;42.10;;;15.90;99.90;;;;;;5081088;28;20291;-62
2021/03/26 11:50:56;;;;;;;59.97;43.15;;;15.90;99.90;;;;;;5080585;28;20300;-62
2021/03/26 11:53:41;;;;;;;58.05;41.83;;;15.70;99.90;;;;;;5071274;28;20189;-62
2021/03/26 11:56:20;;;;;;;58.88;41.15;;;15.50;99.90;;;;;;5072782;28;20618;-61
2021/03/26 11:59:11;;;;;;;58.80;42.20;;;15.40;99.90;;;;;;5074885;28;20195;-63
2021/03/26 12:01:48;;;;;;;60.83;44.47;;;15.40;99.90;;;;;;5060635;28;20197;-62
2021/03/26 12:04:21;;;;;;;62.30;43.22;;;15.70;99.90;;;;;;5070144;28;20238;-61
2021/03/26 12:06:53;;;;;;;57.55;41.92;;;16.00;99.90;;;;;;5071134;28;20684;-62
2021/03/26 12:09:31;;;;;;;58.20;44.10;;;16.40;99.90;;;;;;5071068;28;20184;-62
2021/03/26 12:12:05;;;;;;;54.33;41.05;;;16.60;99.90;;;;;;5074855;28;20229;-62
2021/03/26 12:14:43;;;;;;;55.40;40.42;;;16.70;99.90;;;;;;5091060;28;20209;-62
2021/03/26 12:17:43;;;;;;;54.03;38.47;;;16.70;99.90;;;;;;5091213;28;20671;-62
2021/03/26 12:20:26;;;;;;;55.72;39.30;;;16.60;99.90;;;;;;5090837;28;20539;-63
2021/03/26 12:23:17;;;;;;;53.40;39.22;;;16.30;99.90;;;;;;5090920;28;20191;-62
2021/03/26 12:25:51;;;;;;;55.95;39.75;;;16.00;99.90;;;;;;5077087;28;20250;-62
2021/03/26 12:28:25;;;;;;;52.72;38.25;;;15.80;99.90;;;;;;5074484;28;20344;-62
2021/03/26 12:30:57;;;;;;;55.60;41.10;;;15.70;99.90;;;;;;5070550;28;20208;-61
2021/03/26 12:33:28;;;;;;;54.40;40.53;;;15.80;99.90;;;;;;5080575;28;20287;-65
2021/03/26 12:36:00;;;;;;;53.50;39.47;;;16.00;99.90;;;;;;5071495;28;20788;-61
2021/03/26 12:38:45;;;;;;;53.63;40.13;;;16.20;99.90;;;;;;5070480;28;20612;-63
2021/03/26 12:41:20;;;;;;;55.53;39.58;;;16.40;99.90;;;;;;5070272;28;20594;-64
2021/03/26 12:44:02;;;;;;;49.63;35.95;;;16.60;99.90;;;;;;5090061;28;20227;-60
2021/03/26 12:47:00;;;;;;;47.95;35.88;;;16.40;99.90;;;;;;5090733;28;20192;-60
2021/03/26 12:49:32;;;;;;;51.67;37.70;;;16.20;99.90;;;;;;5090876;28;20191;-61
2021/03/26 12:52:05;;;;;;;52.03;38.45;;;16.00;99.90;;;;;;5090745;28;20300;-60
2021/03/26 12:54:39;;;;;;;52.25;37.60;;;15.90;99.90;;;;;;5090812;28;20185;-60
2021/03/26 12:57:13;;;;;;;48.08;35.53;;;15.90;99.90;;;;;;5090424;28;20227;-61
2021/03/26 12:59:42;;;;;;;47.83;35.78;;;15.80;99.90;;;;;;5090597;28;20249;-61
2021/03/26 13:02:22;;;;;;;42.83;30.60;;;15.70;99.90;;;;;;5089980;28;20283;-61
2021/03/26 13:04:58;;;;;;;42.90;31.02;;;15.50;99.90;;;;;;5090244;28;20223;-61
2021/03/26 13:07:37;;;;;;;43.00;31.33;;;15.50;99.90;;;;;;5088331;28;20282;-61
2021/03/26 13:10:26;;;;;;;46.97;34.33;;;15.60;99.90;;;;;;5081264;28;20204;-63
2021/03/26 13:13:01;;;;;;;42.75;33.20;;;15.80;99.90;;;;;;5077907;28;20204;-58
2021/03/26 13:15:33;;;;;;;47.10;34.67;;;16.00;99.90;;;;;;5090072;28;20211;-57
2021/03/26 13:18:06;;;;;;;43.08;31.73;;;16.10;99.90;;;;;;5089727;28;20830;-61
2021/03/26 13:20:51;;;;;;;41.40;32.03;;;16.10;99.90;;;;;;5090199;28;20191;-60
2021/03/26 13:23:23;;;;;;;42.38;32.53;;;16.00;99.90;;;;;;5083164;28;20710;-60
2021/03/26 13:25:57;;;;;;;43.10;32.25;;;16.00;99.90;;;;;;5087738;28;20672;-60
2021/03/26 13:28:28;;;;;;;42.22;32.90;;;16.00;99.90;;;;;;5089683;28;20242;-60